createdAt,value
2022-12-15T00:00:48.823Z,42.80
2022-12-15T00:03:47.568Z,37.60
2022-12-15T00:06:34.561Z,37.90
2022-12-15T00:09:25.147Z,35.70
2022-12-15T00:12:15.030Z,37.00
2022-12-15T00:15:01.825Z,35.80
2022-12-15T00:17:49.142Z,36.10
2022-12-15T00:20:36.735Z,37.80
2022-12-15T00:23:31.783Z,36.20
2022-12-15T00:26:19.250Z,37.90
2022-12-15T00:29:06.247Z,40.00
2022-12-15T00:31:53.576Z,37.90
2022-12-15T00:34:40.668Z,35.90
2022-12-15T00:37:27.801Z,38.60
2022-12-15T00:39:59.197Z,36.30
2022-12-15T00:42:29.042Z,37.20
2022-12-15T00:44:57.544Z,39.40
2022-12-15T00:47:26.246Z,37.60
2022-12-15T00:50:13.115Z,37.50
2022-12-15T00:53:00.259Z,37.10
2022-12-15T00:55:47.653Z,39.60
2022-12-15T00:58:36.637Z,40.70
2022-12-15T01:01:30.240Z,39.00
2022-12-15T01:04:17.462Z,37.70
2022-12-15T01:07:04.850Z,35.60
2022-12-15T01:09:51.713Z,34.40
2022-12-15T01:12:39.090Z,35.90
2022-12-15T01:15:26.820Z,37.10
2022-12-15T01:18:13.994Z,31.50
2022-12-15T01:20:42.306Z,35.40
2022-12-15T01:23:10.821Z,30.60
2022-12-15T01:25:40.054Z,37.10
2022-12-15T01:28:08.384Z,24.50
2022-12-15T01:30:36.725Z,29.40
2022-12-15T01:33:05.026Z,32.70
2022-12-15T01:35:33.406Z,31.80
2022-12-15T01:38:01.802Z,39.30
2022-12-15T01:40:45.815Z,36.40
2022-12-15T01:46:03.273Z,37.60
2022-12-15T01:48:52.253Z,37.00
2022-12-15T01:51:25.884Z,38.50
2022-12-15T01:56:35.362Z,31.80
2022-12-15T01:59:11.920Z,36.80
2022-12-15T02:01:40.584Z,37.60
2022-12-15T02:04:09.351Z,35.00
2022-12-15T02:06:37.745Z,34.90
2022-12-15T02:09:06.580Z,33.00
2022-12-15T02:11:43.773Z,41.40
2022-12-15T02:14:15.953Z,42.20
2022-12-15T02:16:53.693Z,39.60
2022-12-15T02:19:21.975Z,40.70
2022-12-15T02:22:17.043Z,38.10
2022-12-15T02:25:10.796Z,40.10
2022-12-15T02:28:01.766Z,29.10
2022-12-15T02:31:08.073Z,39.80
2022-12-15T02:34:00.519Z,36.30
2022-12-15T02:36:54.590Z,38.50
2022-12-15T02:39:24.037Z,42.10
2022-12-15T02:41:53.278Z,44.60
2022-12-15T02:44:35.335Z,41.10
2022-12-15T02:47:28.565Z,40.90
2022-12-15T02:50:10.836Z,38.00
2022-12-15T02:52:55.563Z,34.20
2022-12-15T02:55:59.404Z,34.20
2022-12-15T02:58:38.069Z,43.90
2022-12-15T03:01:14.623Z,42.20
2022-12-15T03:03:44.387Z,44.50
2022-12-15T03:06:13.274Z,41.20
2022-12-15T03:08:41.640Z,37.30
2022-12-15T03:11:09.958Z,42.30
2022-12-15T03:13:38.360Z,40.90
2022-12-15T03:16:06.964Z,42.80
2022-12-15T03:18:35.456Z,42.20
2022-12-15T03:21:03.999Z,40.50
2022-12-15T03:23:33.027Z,40.40
2022-12-15T03:26:01.870Z,38.10
2022-12-15T03:28:30.187Z,39.90
2022-12-15T03:30:58.521Z,37.20
2022-12-15T03:33:26.927Z,41.50
2022-12-15T03:35:56.391Z,48.30
2022-12-15T03:38:24.662Z,41.50
2022-12-15T03:40:53.003Z,42.40
2022-12-15T03:43:21.263Z,40.70
2022-12-15T03:45:49.872Z,39.00
2022-12-15T03:48:18.297Z,36.20
2022-12-15T03:50:48.714Z,38.10
2022-12-15T03:53:17.615Z,37.40
2022-12-15T03:55:45.986Z,37.60
2022-12-15T03:58:14.338Z,37.80
2022-12-15T04:00:42.919Z,36.80
2022-12-15T04:03:12.035Z,38.30
2022-12-15T04:05:40.653Z,36.70
2022-12-15T04:08:08.980Z,36.90
2022-12-15T04:10:37.282Z,35.20
2022-12-15T04:13:08.300Z,36.20
2022-12-15T04:15:38.568Z,35.40
2022-12-15T04:18:12.692Z,36.20
2022-12-15T04:20:41.452Z,33.00
2022-12-15T04:23:09.881Z,38.70
2022-12-15T04:25:57.385Z,36.00
2022-12-15T04:28:44.200Z,35.20
2022-12-15T04:31:47.692Z,35.40
2022-12-15T04:34:39.056Z,34.80
2022-12-15T04:37:29.790Z,34.50
2022-12-15T04:40:18.893Z,33.40
2022-12-15T04:43:07.465Z,35.10
2022-12-15T04:45:54.653Z,34.40
2022-12-15T04:48:41.550Z,36.40
2022-12-15T04:51:28.499Z,34.10
2022-12-15T04:54:15.470Z,33.40
2022-12-15T04:57:02.330Z,32.70
2022-12-15T04:59:49.417Z,33.80
2022-12-15T05:02:36.970Z,35.40
2022-12-15T05:05:24.270Z,32.90
2022-12-15T05:08:11.387Z,31.80
2022-12-15T05:10:58.513Z,34.50
2022-12-15T05:13:45.502Z,34.50
2022-12-15T05:16:32.633Z,34.60
2022-12-15T05:19:20.136Z,34.40
2022-12-15T05:22:07.206Z,33.10
2022-12-15T05:24:54.308Z,33.20
2022-12-15T05:27:41.633Z,34.00
2022-12-15T05:30:29.190Z,35.30
2022-12-15T05:32:57.531Z,33.30
2022-12-15T05:35:25.981Z,37.00
2022-12-15T05:37:54.414Z,36.50
2022-12-15T05:40:22.759Z,39.20
2022-12-15T05:42:51.117Z,38.20
2022-12-15T05:45:19.447Z,38.60
2022-12-15T05:47:54.923Z,40.40
2022-12-15T05:50:24.096Z,44.10
2022-12-15T05:52:52.669Z,42.00
2022-12-15T05:55:21.023Z,47.10
2022-12-15T05:57:55.750Z,49.20
2022-12-15T06:00:24.309Z,48.20
2022-12-15T06:02:52.893Z,47.70
2022-12-15T06:05:21.165Z,48.10
2022-12-15T06:07:50.107Z,48.60
2022-12-15T06:10:18.548Z,47.70
2022-12-15T06:12:47.326Z,48.80
2022-12-15T06:15:15.879Z,54.80
2022-12-15T06:17:44.673Z,54.30
2022-12-15T06:20:18.230Z,54.00
2022-12-15T06:22:49.933Z,51.50
2022-12-15T06:25:18.737Z,51.70
2022-12-15T06:27:47.140Z,48.90
2022-12-15T06:30:16.447Z,51.30
2022-12-15T06:32:44.769Z,51.30
2022-12-15T06:35:13.139Z,51.30
2022-12-15T06:37:41.475Z,50.10
2022-12-15T06:40:10.497Z,52.50
2022-12-15T06:42:39.026Z,50.00
2022-12-15T06:45:08.617Z,49.60
2022-12-15T06:47:37.080Z,54.40
2022-12-15T06:50:05.804Z,52.30
2022-12-15T06:52:34.129Z,47.10
2022-12-15T06:55:03.711Z,49.00
2022-12-15T06:57:32.249Z,47.10
2022-12-15T07:00:29.731Z,47.60
2022-12-15T07:02:58.342Z,50.60
2022-12-15T07:05:27.834Z,48.10
2022-12-15T07:07:56.166Z,46.80
2022-12-15T07:10:24.560Z,48.10
2022-12-15T07:12:52.875Z,43.90
2022-12-15T07:15:21.268Z,46.30
2022-12-15T07:17:49.804Z,46.00
2022-12-15T07:20:18.304Z,48.40
2022-12-15T07:22:51.594Z,50.70
2022-12-15T07:25:20.996Z,49.40
2022-12-15T07:27:49.323Z,50.80
2022-12-15T07:30:18.400Z,51.10
2022-12-15T07:32:50.397Z,48.90
2022-12-15T07:35:18.963Z,54.10
2022-12-15T07:37:47.339Z,52.50
2022-12-15T07:40:15.676Z,53.00
2022-12-15T07:42:44.274Z,52.20
2022-12-15T07:45:12.606Z,52.30
2022-12-15T07:47:41.142Z,50.70
2022-12-15T07:50:09.656Z,51.40
2022-12-15T07:52:38.047Z,54.10
2022-12-15T07:55:07.230Z,56.80
2022-12-15T07:57:35.743Z,57.20
2022-12-15T08:00:26.087Z,58.30
2022-12-15T08:02:54.771Z,58.50
2022-12-15T08:05:24.041Z,59.90
2022-12-15T08:07:52.413Z,63.20
2022-12-15T08:10:20.792Z,65.10
2022-12-15T08:12:49.188Z,68.10
2022-12-15T08:15:17.612Z,67.00
2022-12-15T08:17:46.946Z,67.40
2022-12-15T08:20:15.730Z,66.60
2022-12-15T08:22:44.005Z,66.70
2022-12-15T08:25:12.467Z,69.90
2022-12-15T08:27:41.373Z,73.00
2022-12-15T08:30:10.565Z,69.60
2022-12-15T08:32:39.865Z,66.80
2022-12-15T08:35:25.303Z,67.10
2022-12-15T08:37:53.965Z,63.00
2022-12-15T08:40:22.392Z,66.90
2022-12-15T08:42:50.755Z,68.20
2022-12-15T08:45:19.160Z,67.80
2022-12-15T08:47:47.583Z,69.20
2022-12-15T08:50:16.147Z,65.10
2022-12-15T08:53:00.590Z,62.00
2022-12-15T08:55:29.412Z,56.90
2022-12-15T08:57:58.445Z,63.40
2022-12-15T09:00:26.896Z,63.90
2022-12-15T09:02:55.509Z,66.40
2022-12-15T09:05:23.947Z,67.40
2022-12-15T09:08:06.143Z,65.50
2022-12-15T09:10:35.292Z,65.50
2022-12-15T09:13:03.729Z,69.20
2022-12-15T09:16:07.069Z,69.70
2022-12-15T09:18:20.373Z,65.20
2022-12-15T09:20:48.776Z,61.00
2022-12-15T09:23:17.323Z,63.20
2022-12-15T09:25:46.887Z,65.60
2022-12-15T09:28:15.305Z,69.30
2022-12-15T09:30:43.612Z,69.60
2022-12-15T09:33:12.011Z,64.50
2022-12-15T09:35:40.525Z,71.80
2022-12-15T09:38:08.838Z,70.00
2022-12-15T09:40:37.214Z,71.20
2022-12-15T09:43:33.551Z,70.90
2022-12-15T09:46:16.279Z,64.80
2022-12-15T09:48:47.254Z,64.30
2022-12-15T09:51:19.045Z,69.40
2022-12-15T09:53:56.093Z,69.50
2022-12-15T09:56:39.225Z,71.80
2022-12-15T09:59:41.592Z,73.70
2022-12-15T10:02:44.114Z,70.70
2022-12-15T10:06:06.031Z,72.10
2022-12-15T10:08:24.114Z,68.40
2022-12-15T10:11:05.864Z,62.90
2022-12-15T10:14:13.541Z,65.70
2022-12-15T10:16:55.693Z,69.20
2022-12-15T10:19:32.018Z,67.70
2022-12-15T10:22:00.913Z,66.50
2022-12-15T10:25:07.932Z,69.80
2022-12-15T10:27:47.618Z,67.80
2022-12-15T10:30:17.852Z,69.40
2022-12-15T10:32:56.090Z,69.10
2022-12-15T10:35:29.831Z,67.80
2022-12-15T10:38:04.941Z,67.00
2022-12-15T10:43:27.606Z,74.40
2022-12-15T10:46:19.080Z,72.70
2022-12-15T10:48:59.620Z,75.40
2022-12-15T10:51:51.723Z,69.50
2022-12-15T10:54:21.166Z,69.20
2022-12-15T10:57:00.616Z,65.90
2022-12-15T10:59:32.068Z,63.00
2022-12-15T11:02:27.827Z,65.90
2022-12-15T11:04:59.209Z,64.10
2022-12-15T11:07:40.030Z,65.40
2022-12-15T11:10:53.049Z,63.80
2022-12-15T11:13:26.347Z,62.60
2022-12-15T11:16:14.088Z,68.60
2022-12-15T11:19:02.759Z,65.40
2022-12-15T11:21:37.203Z,59.80
2022-12-15T11:24:37.006Z,57.90
2022-12-15T11:27:19.247Z,62.00
2022-12-15T11:30:06.125Z,63.40
2022-12-15T11:32:37.566Z,61.90
2022-12-15T11:35:13.519Z,63.60
2022-12-15T11:37:51.824Z,62.80
2022-12-15T11:40:34.163Z,63.70
2022-12-15T11:43:09.522Z,61.40
2022-12-15T11:46:15.345Z,57.70
2022-12-15T11:49:02.564Z,57.30
2022-12-15T11:51:46.752Z,59.20
2022-12-15T11:54:39.210Z,59.00
2022-12-15T11:57:59.205Z,79.90
2022-12-15T12:00:32.437Z,57.40
2022-12-15T12:03:20.999Z,145.80
2022-12-15T12:05:57.141Z,83.30
2022-12-15T12:08:51.217Z,53.90
2022-12-15T12:11:29.385Z,46.50
2022-12-15T12:14:31.572Z,50.80
2022-12-15T12:17:27.446Z,46.90
2022-12-15T12:20:02.990Z,45.40
2022-12-15T12:23:05.742Z,64.00
2022-12-15T12:25:42.019Z,42.70
2022-12-15T12:28:23.828Z,41.30
2022-12-15T12:30:55.451Z,43.80
2022-12-15T12:33:45.133Z,39.30
2022-12-15T12:36:16.294Z,29.80
2022-12-15T12:38:51.837Z,29.00
2022-12-15T12:41:38.932Z,28.70
2022-12-15T12:44:31.263Z,26.40
2022-12-15T12:47:22.855Z,24.30
2022-12-15T12:50:14.791Z,28.70
2022-12-15T12:52:51.329Z,27.80
2022-12-15T12:55:27.886Z,28.60
2022-12-15T12:57:57.374Z,31.30
2022-12-15T13:00:33.015Z,30.40
2022-12-15T13:03:18.136Z,29.80
2022-12-15T13:05:50.628Z,31.30
2022-12-15T13:08:58.893Z,33.50
2022-12-15T13:11:58.126Z,37.20
2022-12-15T13:14:53.634Z,36.50
2022-12-15T13:17:39.208Z,36.90
2022-12-15T13:20:20.888Z,35.90
2022-12-15T13:22:50.503Z,38.60
2022-12-15T13:25:40.605Z,40.40
2022-12-15T13:28:20.741Z,41.70
2022-12-15T13:31:17.308Z,42.50
2022-12-15T13:33:52.662Z,45.30
2022-12-15T13:36:39.941Z,48.10
2022-12-15T13:39:17.246Z,45.70
2022-12-15T13:44:54.904Z,47.30
2022-12-15T13:47:24.945Z,47.60
2022-12-15T13:50:19.909Z,49.70
2022-12-15T13:56:38.275Z,50.70
2022-12-15T14:00:09.762Z,51.60
2022-12-15T14:02:38.087Z,45.30
2022-12-15T14:05:26.339Z,45.00
2022-12-15T14:07:55.231Z,45.90
2022-12-15T14:10:45.998Z,36.30
2022-12-15T14:13:30.166Z,39.60
2022-12-15T14:16:03.715Z,39.10
2022-12-15T14:18:39.245Z,36.40
2022-12-15T14:21:20.367Z,34.90
2022-12-15T14:24:36.922Z,33.70
2022-12-15T14:26:37.197Z,34.90
2022-12-15T14:29:06.824Z,33.50
2022-12-15T14:31:38.168Z,35.20
2022-12-15T14:34:18.487Z,36.30
2022-12-15T14:36:50.724Z,36.90
2022-12-15T14:39:50.344Z,37.20
2022-12-15T14:42:31.363Z,34.50
2022-12-15T14:44:59.973Z,35.70
2022-12-15T14:47:35.155Z,35.90
2022-12-15T14:50:10.102Z,35.60
2022-12-15T14:52:43.287Z,45.20
2022-12-15T14:55:30.627Z,34.20
2022-12-15T14:58:08.469Z,32.90
2022-12-15T15:00:50.467Z,36.30
2022-12-15T15:03:07.530Z,45.20
2022-12-15T15:06:01.796Z,32.00
2022-12-15T15:08:37.004Z,33.10
2022-12-15T15:11:36.128Z,34.70
2022-12-15T15:14:27.198Z,34.20
2022-12-15T15:17:14.986Z,32.80
2022-12-15T15:20:06.177Z,31.80
2022-12-15T15:22:43.575Z,33.70
2022-12-15T15:25:40.263Z,32.40
2022-12-15T15:28:17.878Z,30.00
2022-12-15T15:31:05.924Z,69.40
2022-12-15T15:33:34.456Z,41.50
2022-12-15T15:36:04.549Z,32.70
2022-12-15T15:38:36.113Z,40.80
2022-12-15T15:41:26.801Z,45.30
2022-12-15T15:43:56.348Z,48.80
2022-12-15T15:46:28.700Z,35.10
2022-12-15T15:49:03.764Z,32.40
2022-12-15T15:51:33.911Z,36.60
2022-12-15T15:54:08.965Z,38.00
2022-12-15T15:56:37.308Z,34.40
2022-12-15T15:59:14.823Z,47.70
2022-12-15T16:01:44.782Z,44.40
2022-12-15T16:04:13.403Z,36.60
2022-12-15T16:06:46.917Z,42.80
2022-12-15T16:09:17.280Z,33.90
2022-12-15T16:11:47.065Z,34.90
2022-12-15T16:14:18.257Z,31.90
2022-12-15T16:16:46.819Z,42.40
2022-12-15T16:19:15.525Z,45.90
2022-12-15T16:21:44.006Z,40.10
2022-12-15T16:24:19.025Z,34.20
2022-12-15T16:26:50.427Z,27.20
2022-12-15T16:29:22.379Z,28.40
2022-12-15T16:31:50.925Z,39.70
2022-12-15T16:34:22.119Z,31.30
2022-12-15T16:36:50.971Z,26.60
2022-12-15T16:39:29.335Z,29.10
2022-12-15T16:41:58.466Z,26.70
2022-12-15T16:44:29.101Z,31.40
2022-12-15T16:46:59.298Z,32.10
2022-12-15T16:49:35.170Z,30.30
2022-12-15T16:52:06.919Z,27.60
2022-12-15T16:54:35.520Z,32.40
2022-12-15T16:57:05.876Z,27.40
2022-12-15T16:59:48.873Z,26.60
2022-12-15T17:02:30.461Z,33.30
2022-12-15T17:04:59.309Z,31.30
2022-12-15T17:07:28.488Z,24.90
2022-12-15T17:09:57.536Z,31.30
2022-12-15T17:12:26.619Z,31.50
2022-12-15T17:14:55.098Z,28.10
2022-12-15T17:17:23.896Z,31.20
2022-12-15T17:20:27.407Z,29.70
2022-12-15T17:22:41.483Z,22.70
2022-12-15T17:25:27.149Z,28.70
2022-12-15T17:28:12.527Z,31.00
2022-12-15T17:30:42.102Z,37.10
2022-12-15T17:33:34.534Z,27.90
2022-12-15T17:36:27.397Z,40.80
2022-12-15T17:38:59.316Z,31.30
2022-12-15T17:41:58.221Z,27.30
2022-12-15T17:44:36.335Z,26.70
2022-12-15T17:47:09.855Z,23.90
2022-12-15T17:49:39.112Z,27.80
2022-12-15T17:52:28.475Z,40.20
2022-12-15T17:54:57.964Z,27.40
2022-12-15T17:57:27.071Z,30.10
2022-12-15T18:00:02.250Z,33.10
2022-12-15T18:02:33.619Z,33.90
2022-12-15T18:05:02.463Z,33.60
2022-12-15T18:07:31.434Z,35.30
2022-12-15T18:10:02.017Z,29.10
2022-12-15T18:12:30.475Z,30.00
2022-12-15T18:15:00.176Z,31.20
2022-12-15T18:17:29.775Z,33.60
2022-12-15T18:19:58.857Z,31.50
2022-12-15T18:22:29.478Z,30.50
2022-12-15T18:24:58.575Z,32.30
2022-12-15T18:27:29.643Z,32.00
2022-12-15T18:29:58.481Z,35.70
2022-12-15T18:32:30.175Z,38.10
2022-12-15T18:34:59.037Z,36.20
2022-12-15T18:37:28.558Z,47.20
2022-12-15T18:40:04.186Z,33.80
2022-12-15T18:42:35.554Z,32.90
2022-12-15T18:45:06.045Z,29.20
2022-12-15T18:47:34.901Z,26.90
2022-12-15T18:50:07.176Z,26.50
2022-12-15T18:52:37.125Z,25.40
2022-12-15T18:55:17.031Z,24.10
2022-12-15T18:57:46.259Z,112.90
2022-12-15T19:00:16.409Z,65.90
2022-12-15T19:02:46.766Z,56.20
2022-12-15T19:05:32.974Z,41.10
2022-12-15T19:08:14.420Z,24.30
2022-12-15T19:10:49.079Z,35.90
2022-12-15T19:13:20.150Z,25.70
2022-12-15T19:15:50.335Z,23.80
2022-12-15T19:18:41.309Z,24.30
2022-12-15T19:21:43.806Z,26.20
2022-12-15T19:24:19.060Z,27.80
2022-12-15T19:26:49.867Z,30.30
2022-12-15T19:29:22.782Z,30.80
2022-12-15T19:31:53.452Z,32.20
2022-12-15T19:34:22.674Z,37.80
2022-12-15T19:36:54.543Z,34.00
2022-12-15T19:39:25.564Z,35.20
2022-12-15T19:41:57.182Z,31.20
2022-12-15T19:44:26.516Z,32.50
2022-12-15T19:46:56.389Z,32.30
2022-12-15T19:49:25.921Z,35.30
2022-12-15T19:51:55.397Z,30.70
2022-12-15T19:54:29.412Z,33.30
2022-12-15T19:56:59.819Z,33.90
2022-12-15T20:00:39.673Z,32.00
2022-12-15T20:03:10.008Z,36.60
2022-12-15T20:05:39.621Z,35.90
2022-12-15T20:08:15.566Z,42.40
2022-12-15T20:10:46.206Z,46.20
2022-12-15T20:13:16.893Z,50.50
2022-12-15T20:15:46.293Z,40.70
2022-12-15T20:18:15.974Z,38.40
2022-12-15T20:20:48.197Z,38.40
2022-12-15T20:23:26.670Z,34.50
2022-12-15T20:25:56.768Z,37.60
2022-12-15T20:28:28.377Z,37.90
2022-12-15T20:30:58.501Z,35.60
2022-12-15T20:33:28.057Z,32.20
2022-12-15T20:35:56.744Z,33.10
2022-12-15T20:38:25.525Z,34.30
2022-12-15T20:40:56.138Z,31.30
2022-12-15T20:43:26.590Z,30.50
2022-12-15T20:46:12.119Z,31.30
2022-12-15T20:48:41.603Z,29.60
2022-12-15T20:51:34.022Z,27.40
2022-12-15T20:54:13.835Z,28.00
2022-12-15T20:56:43.910Z,28.40
2022-12-15T20:59:36.674Z,29.20
2022-12-15T21:02:23.510Z,35.00
2022-12-15T21:04:53.099Z,33.30
2022-12-15T21:07:22.155Z,35.80
2022-12-15T21:09:51.427Z,32.10
2022-12-15T21:12:22.964Z,35.40
2022-12-15T21:14:52.714Z,35.40
2022-12-15T21:17:23.092Z,35.90
2022-12-15T21:19:52.918Z,30.00
2022-12-15T21:22:25.942Z,29.10
2022-12-15T21:24:57.243Z,31.40
2022-12-15T21:27:25.741Z,30.80
2022-12-15T21:29:54.364Z,29.00
2022-12-15T21:32:23.318Z,29.10
2022-12-15T21:34:51.745Z,27.10
2022-12-15T21:37:28.874Z,26.00
2022-12-15T21:39:59.841Z,26.30
2022-12-15T21:42:28.438Z,27.80
2022-12-15T21:44:56.742Z,26.30
2022-12-15T21:47:52.072Z,25.60
2022-12-15T21:50:20.759Z,24.60
2022-12-15T21:52:49.259Z,27.00
2022-12-15T21:55:24.166Z,25.30
2022-12-15T21:57:53.192Z,26.10
2022-12-15T22:01:24.919Z,36.60
2022-12-15T22:03:56.768Z,37.10
2022-12-15T22:06:28.049Z,32.40
2022-12-15T22:09:00.779Z,26.30
2022-12-15T22:11:31.696Z,28.00
2022-12-15T22:14:03.051Z,26.90
2022-12-15T22:16:31.340Z,27.70
2022-12-15T22:18:59.792Z,31.90
2022-12-15T22:21:28.135Z,27.90
2022-12-15T22:23:56.497Z,27.00
2022-12-15T22:26:29.243Z,31.70
2022-12-15T22:29:01.699Z,33.10
2022-12-15T22:31:30.076Z,27.80
2022-12-15T22:33:58.497Z,28.60
2022-12-15T22:36:26.861Z,31.10
2022-12-15T22:38:55.297Z,30.90
2022-12-15T22:41:24.382Z,32.00
2022-12-15T22:43:56.027Z,33.20
2022-12-15T22:46:25.425Z,32.10
2022-12-15T22:48:54.671Z,30.50
2022-12-15T22:51:23.374Z,28.80
2022-12-15T22:53:51.852Z,25.70
2022-12-15T22:56:40.561Z,34.10
2022-12-15T22:59:36.575Z,31.30
2022-12-15T23:02:05.547Z,31.80
2022-12-15T23:04:34.297Z,31.90
2022-12-15T23:07:05.906Z,35.20
2022-12-15T23:09:34.241Z,32.80
2022-12-15T23:12:02.613Z,33.50
2022-12-15T23:14:59.767Z,32.40
2022-12-15T23:17:28.138Z,35.30
2022-12-15T23:19:56.757Z,35.50
2022-12-15T23:22:25.067Z,36.70
2022-12-15T23:24:53.444Z,38.00
2022-12-15T23:27:21.754Z,41.40
2022-12-15T23:29:50.088Z,35.50
2022-12-15T23:32:20.238Z,41.30
2022-12-15T23:34:48.631Z,38.30
2022-12-15T23:37:16.997Z,38.70
2022-12-15T23:39:45.485Z,44.70
2022-12-15T23:42:13.864Z,37.00
2022-12-15T23:44:42.241Z,39.00
2022-12-15T23:47:10.770Z,42.80
2022-12-15T23:49:39.270Z,43.90
2022-12-15T23:52:08.786Z,42.70
2022-12-15T23:54:37.178Z,40.40
2022-12-15T23:57:05.594Z,42.00
